Time;durP1;ratioP1;P1;durP2;ratioP2;P2;SDS_P1;SDS_P2;PMS_P1;PMS_P2;Temp;Humidity;BMP_temperature;BMP_pressure;BME280_temperature;BME280_humidity;BME280_pressure;Samples;Min_cycle;Max_cycle;Signal;HPM_P1;HPM_P2
2022/06/21 00:01:05;;;;;;;;;;;;;;;;;;4999557;28;20036;-86
2022/06/21 00:03:32;;;;;;;3.05;0.95;;;;;;;;;;5002199;28;19953;-87
2022/06/21 00:05:58;;;;;;;1.10;1.00;;;;;;;;;;5001173;28;20034;-90
2022/06/21 00:08:27;;;;;;;1.15;0.95;;;;;;;;;;4999679;28;20529;-88
2022/06/21 00:10:54;;;;;;;0.68;0.68;;;;;;;;;;4999664;28;20030;-89
2022/06/21 00:13:23;;;;;;;2.00;0.90;;;;;;;;;;5001673;28;20121;-89
2022/06/21 00:15:52;;;;;;;0.80;0.80;;;;;;;;;;5001083;28;20033;-87
2022/06/21 00:18:20;;;;;;;1.95;0.88;;;;;;;;;;5001145;28;20022;-88
2022/06/21 00:20:46;;;;;;;4.25;0.93;;;;;;;;;;5000986;28;20049;-89
2022/06/21 00:23:14;;;;;;;2.33;0.98;;;;;;;;;;4999970;28;20042;-89
2022/06/21 00:25:40;;;;;;;1.67;0.85;;;;;;;;;;4999439;28;20030;-89
2022/06/21 00:28:05;;;;;;;1.67;0.98;;;;;;;;;;4999542;28;20021;-89
2022/06/21 00:30:31;;;;;;;2.17;1.27;;;;;;;;;;4999647;28;20037;-89
2022/06/21 00:32:56;;;;;;;2.25;1.05;;;;;;;;;;5000752;28;20490;-86
2022/06/21 00:35:24;;;;;;;1.35;1.15;;;;;;;;;;5003522;28;20549;-89
2022/06/21 00:37:51;;;;;;;1.20;0.75;;;;;;;;;;5004742;28;20022;-89
2022/06/21 00:40:19;;;;;;;3.20;1.23;;;;;;;;;;5004025;28;20061;-86
2022/06/21 00:42:50;;;;;;;0.90;0.90;;;;;;;;;;5004950;28;20058;-88
2022/06/21 00:45:39;;;;;;;1.70;1.10;;;;;;;;;;5002856;28;20034;-88
2022/06/21 00:48:37;;;;;;;1.63;1.08;;;;;;;;;;5003194;28;20038;-88
2022/06/21 00:51:15;;;;;;;1.85;1.30;;;;;;;;;;5002718;28;20038;-87
2022/06/21 00:53:50;;;;;;;1.92;1.15;;;;;;;;;;5003273;28;20125;-88
2022/06/21 00:56:41;;;;;;;2.97;1.17;;;;;;;;;;5004852;28;20030;-88
2022/06/21 00:59:19;;;;;;;1.85;0.80;;;;;;;;;;5005224;28;20037;-90
2022/06/21 01:01:46;;;;;;;2.30;0.85;;;;;;;;;;5004302;28;20105;-89
2022/06/21 01:04:19;;;;;;;3.05;1.10;;;;;;;;;;5003863;28;20053;-89
2022/06/21 01:06:49;;;;;;;2.30;1.15;;;;;;;;;;5003906;28;20033;-89
2022/06/21 01:09:21;;;;;;;4.05;1.35;;;;;;;;;;5003054;28;20451;-89
2022/06/21 01:11:56;;;;;;;;;;;;;;;;;;5004089;28;20069;-89
2022/06/21 01:14:23;;;;;;;2.88;1.10;;;;;;;;;;5003631;28;19929;-88
2022/06/21 01:16:49;;;;;;;2.45;1.60;;;;;;;;;;5004047;28;20103;-89
2022/06/21 01:19:29;;;;;;;6.03;1.83;;;;;;;;;;5003483;28;20187;-89
2022/06/21 01:22:01;;;;;;;3.25;1.38;;;;;;;;;;5003184;28;20015;-89
2022/06/21 01:24:45;;;;;;;1.95;1.10;;;;;;;;;;5004580;28;20022;-88
2022/06/21 01:27:10;;;;;;;1.50;1.27;;;;;;;;;;5004367;28;20050;-89
2022/06/21 01:29:37;;;;;;;2.45;1.95;;;;;;;;;;5004895;28;20026;-89
2022/06/21 01:32:05;;;;;;;3.28;2.53;;;;;;;;;;5004619;28;20383;-89
2022/06/21 01:34:31;;;;;;;1.40;1.33;;;;;;;;;;5004542;28;20022;-86
2022/06/21 01:37:03;;;;;;;3.08;2.20;;;;;;;;;;5004359;28;20156;-89
2022/06/21 01:39:40;;;;;;;3.03;1.35;;;;;;;;;;5003064;28;20494;-89
2022/06/21 01:42:11;;;;;;;3.65;1.25;;;;;;;;;;5004357;28;20038;-90
2022/06/21 01:44:41;;;;;;;5.70;1.67;;;;;;;;;;5002931;28;20109;-89
2022/06/21 01:47:13;;;;;;;2.80;1.40;;;;;;;;;;5002812;28;20098;-90
2022/06/21 01:49:43;;;;;;;3.35;1.25;;;;;;;;;;5004309;28;20035;-88
2022/06/21 01:52:16;;;;;;;3.63;1.80;;;;;;;;;;5002674;28;20034;-88
2022/06/21 01:54:45;;;;;;;3.85;1.50;;;;;;;;;;5003599;28;20019;-90
2022/06/21 01:57:13;;;;;;;3.63;1.60;;;;;;;;;;5001892;28;20022;-88
2022/06/21 01:59:41;;;;;;;3.22;1.50;;;;;;;;;;5004336;28;20022;-86
2022/06/21 02:02:44;;;;;;;2.38;1.55;;;;;;;;;;5004310;28;20037;-89
2022/06/21 02:05:16;;;;;;;2.10;1.83;;;;;;;;;;5002679;28;20036;-87
2022/06/21 02:07:52;;;;;;;3.63;1.77;;;;;;;;;;5003266;28;20121;-88
2022/06/21 02:10:30;;;;;;;5.78;1.88;;;;;;;;;;5002413;28;20069;-89
2022/06/21 02:13:06;;;;;;;5.20;1.50;;;;;;;;;;5003901;28;20473;-89
2022/06/21 02:15:37;;;;;;;4.25;2.13;;;;;;;;;;5004356;28;20383;-88
2022/06/21 02:18:10;;;;;;;3.47;1.30;;;;;;;;;;5002926;28;20379;-90
2022/06/21 02:20:53;;;;;;;2.20;1.83;;;;;;;;;;5001730;28;20379;-89
2022/06/21 02:23:22;;;;;;;3.90;1.52;;;;;;;;;;5017205;28;20057;-87
2022/06/21 02:25:49;;;;;;;4.68;2.08;;;;;;;;;;5023814;28;20021;-90
2022/06/21 02:28:17;;;;;;;4.43;1.40;;;;;;;;;;5039665;28;20081;-88
2022/06/21 02:30:44;;;;;;;4.32;2.58;;;;;;;;;;5023968;28;20088;-88
2022/06/21 02:33:18;;;;;;;2.90;2.42;;;;;;;;;;5040455;28;20116;-90
2022/06/21 02:35:55;;;;;;;3.78;1.70;;;;;;;;;;5023494;28;20393;-90
2022/06/21 02:38:44;;;;;;;4.43;2.10;;;;;;;;;;5024220;28;20470;-88
2022/06/21 02:41:19;;;;;;;3.80;1.75;;;;;;;;;;5024666;28;20477;-88
2022/06/21 02:44:13;;;;;;;4.10;2.30;;;;;;;;;;5022160;28;20040;-88
2022/06/21 02:46:43;;;;;;;3.47;1.98;;;;;;;;;;5039234;28;20037;-89
2022/06/21 02:49:26;;;;;;;4.65;2.00;;;;;;;;;;5022912;28;20045;-89
2022/06/21 02:51:55;;;;;;;5.85;2.10;;;;;;;;;;5021732;28;20117;-89
2022/06/21 02:54:32;;;;;;;4.97;1.80;;;;;;;;;;5023387;28;20052;-89
2022/06/21 02:57:06;;;;;;;3.88;2.30;;;;;;;;;;5037791;28;20036;-89
2022/06/21 02:59:34;;;;;;;2.85;2.42;;;;;;;;;;5023457;28;20374;-88
2022/06/21 03:02:07;;;;;;;5.05;2.20;;;;;;;;;;5038090;28;20025;-88
2022/06/21 03:04:47;;;;;;;4.82;2.00;;;;;;;;;;5021556;28;20072;-90
2022/06/21 03:07:16;;;;;;;3.67;1.83;;;;;;;;;;5022473;28;20036;-89
2022/06/21 03:09:42;;;;;;;6.90;2.22;;;;;;;;;;5022187;28;20364;-89
2022/06/21 03:12:09;;;;;;;8.88;2.40;;;;;;;;;;5023113;28;20021;-90
2022/06/21 03:14:37;;;;;;;2.50;1.88;;;;;;;;;;5021455;28;20021;-89
2022/06/21 03:17:04;;;;;;;4.85;2.15;;;;;;;;;;5022476;28;20021;-90
2022/06/21 03:19:43;;;;;;;3.78;2.22;;;;;;;;;;5095573;27;1561829;-72
2022/06/21 03:22:23;;;;;;;;;;;;;;;;;;5123402;28;20050;-73
2022/06/21 03:24:52;;;;;;;7.10;3.15;;;;;;;;;;5106033;28;19947;-73
2022/06/21 03:27:47;;;;;;;4.53;2.33;;;;;;;;;;5105632;28;20020;-73
2022/06/21 03:30:16;;;;;;;6.15;2.25;;;;;;;;;;5105654;28;20430;-73
2022/06/21 03:32:42;;;;;;;4.07;1.90;;;;;;;;;;5105692;28;20119;-73
2022/06/21 03:35:09;;;;;;;5.28;2.28;;;;;;;;;;5105189;28;20024;-73
2022/06/21 03:37:37;;;;;;;3.55;2.00;;;;;;;;;;5105308;28;20030;-75
2022/06/21 03:42:50;;;;;;;2.42;2.00;;;;;;;;;;5106831;28;20537;-74
2022/06/21 03:45:25;;;;;;;5.95;2.20;;;;;;;;;;5106947;28;20020;-73
2022/06/21 03:48:07;;;;;;;4.13;2.10;;;;;;;;;;5105537;28;20122;-73
2022/06/21 03:50:45;;;;;;;6.30;2.50;;;;;;;;;;5106918;28;20015;-73
2022/06/21 03:53:20;;;;;;;5.80;2.40;;;;;;;;;;5105421;28;20506;-74
2022/06/21 03:56:00;;;;;;;4.13;2.67;;;;;;;;;;5104980;28;20097;-74
2022/06/21 03:58:44;;;;;;;15.50;3.63;;;;;;;;;;5106481;28;20574;-73
2022/06/21 04:01:23;;;;;;;7.03;2.22;;;;;;;;;;5105045;28;20055;-73
2022/06/21 04:04:09;;;;;;;6.72;2.88;;;;;;;;;;5106780;28;20085;-73
2022/06/21 04:07:01;;;;;;;3.45;2.38;;;;;;;;;;5105242;28;20019;-73
2022/06/21 04:09:47;;;;;;;4.80;2.05;;;;;;;;;;5106502;28;20488;-74
2022/06/21 04:12:22;;;;;;;4.75;2.80;;;;;;;;;;5105246;28;20035;-73
2022/06/21 04:15:09;;;;;;;3.13;2.30;;;;;;;;;;5104720;28;20039;-73
2022/06/21 04:17:49;;;;;;;11.20;2.17;;;;;;;;;;5104823;28;20035;-73
2022/06/21 04:20:22;;;;;;;4.53;2.25;;;;;;;;;;5106693;28;20098;-72
2022/06/21 04:22:47;;;;;;;6.05;2.20;;;;;;;;;;5105737;28;20024;-73
2022/06/21 04:25:31;;;;;;;3.58;2.30;;;;;;;;;;5106226;28;20028;-73
2022/06/21 04:28:40;;;;;;;7.18;2.03;;;;;;;;;;5104791;28;20100;-73
2022/06/21 04:31:16;;;;;;;3.92;1.85;;;;;;;;;;5028936;28;20030;-73
2022/06/21 04:33:53;;;;;;;2.60;2.08;;;;;;;;;;5084277;28;20044;-72
2022/06/21 04:36:27;;;;;;;3.55;2.13;;;;;;;;;;5091083;28;20039;-73
2022/06/21 04:39:20;;;;;;;4.78;2.40;;;;;;;;;;5092240;28;20110;-72
2022/06/21 04:41:51;;;;;;;;;;;;;;;;;;5090605;28;20044;-75
2022/06/21 04:44:27;;;;;;;6.97;4.10;;;;;;;;;;5090579;28;20389;-72
2022/06/21 04:47:21;;;;;;;3.55;2.05;;;;;;;;;;5091812;28;20252;-73
2022/06/21 04:50:21;;;;;;;5.20;2.78;;;;;;;;;;5090773;28;20032;-74
2022/06/21 04:52:59;;;;;;;4.95;2.42;;;;;;;;;;5092302;28;20043;-73
2022/06/21 04:55:37;;;;;;;4.25;2.22;;;;;;;;;;5090882;28;20040;-74
2022/06/21 04:58:02;;;;;;;6.95;2.30;;;;;;;;;;5074854;28;20151;-72
2022/06/21 05:00:28;;;;;;;4.68;2.10;;;;;;;;;;5090532;28;20044;-72
2022/06/21 05:03:04;;;;;;;16.15;3.35;;;;;;;;;;5091798;28;20089;-74
2022/06/21 05:05:34;;;;;;;6.45;2.00;;;;;;;;;;5090607;28;20036;-73
2022/06/21 05:08:11;;;;;;;6.53;3.22;;;;;;;;;;5090251;28;20039;-74
2022/06/21 05:10:41;;;;;;;8.18;2.70;;;;;;;;;;5091748;28;20036;-73
2022/06/21 05:13:19;;;;;;;4.13;2.30;;;;;;;;;;5091551;28;20359;-72
2022/06/21 05:15:45;;;;;;;4.28;2.13;;;;;;;;;;5091445;28;20036;-74
2022/06/21 05:18:17;;;;;;;4.88;2.42;;;;;;;;;;5089675;28;20055;-73
2022/06/21 05:21:02;;;;;;;6.25;2.45;;;;;;;;;;5089966;28;20028;-73
2022/06/21 05:23:30;;;;;;;4.55;2.72;;;;;;;;;;5089911;28;20028;-72
2022/06/21 05:25:59;;;;;;;6.53;2.72;;;;;;;;;;5086876;28;20047;-71
2022/06/21 05:28:55;;;;;;;4.68;2.53;;;;;;;;;;5077560;28;20032;-74
2022/06/21 05:31:28;;;;;;;8.48;2.55;;;;;;;;;;5085245;28;20040;-74
2022/06/21 05:34:04;;;;;;;6.93;3.08;;;;;;;;;;5085971;28;20438;-73
2022/06/21 05:36:38;;;;;;;5.82;3.50;;;;;;;;;;5070762;28;20090;-73
2022/06/21 05:39:11;;;;;;;6.55;3.05;;;;;;;;;;5087157;28;20039;-72
2022/06/21 05:41:43;;;;;;;8.18;2.90;;;;;;;;;;5078825;28;20032;-73
2022/06/21 05:44:10;;;;;;;5.05;2.38;;;;;;;;;;5077588;28;20028;-74
2022/06/21 05:46:47;;;;;;;6.18;3.03;;;;;;;;;;5088458;28;20031;-75
2022/06/21 05:49:21;;;;;;;7.70;3.08;;;;;;;;;;5082957;28;20069;-73
2022/06/21 05:51:47;;;;;;;8.40;3.65;;;;;;;;;;5076363;28;20028;-74
2022/06/21 05:54:23;;;;;;;8.57;3.60;;;;;;;;;;5067975;28;20131;-74
2022/06/21 05:56:50;;;;;;;6.93;3.22;;;;;;;;;;5087979;28;20089;-74
2022/06/21 05:59:20;;;;;;;7.47;3.13;;;;;;;;;;5075220;28;20032;-75
2022/06/21 06:02:14;;;;;;;4.93;3.30;;;;;;;;;;5078309;28;20491;-72
2022/06/21 06:04:48;;;;;;;8.20;3.50;;;;;;;;;;5079952;28;20031;-73
2022/06/21 06:07:43;;;;;;;7.95;3.30;;;;;;;;;;5081184;28;20028;-75
2022/06/21 06:10:10;;;;;;;5.15;3.30;;;;;;;;;;5065462;28;20047;-70
2022/06/21 06:12:47;;;;;;;6.38;2.60;;;;;;;;;;5077158;28;20051;-74
2022/06/21 06:15:30;;;;;;;6.18;3.67;;;;;;;;;;5076865;28;20415;-74
2022/06/21 06:18:02;;;;;;;4.00;3.17;;;;;;;;;;5084787;28;20472;-73
2022/06/21 06:20:38;;;;;;;4.72;2.85;;;;;;;;;;5081563;28;20040;-73
2022/06/21 06:23:17;;;;;;;7.10;2.90;;;;;;;;;;5077271;28;20530;-70
2022/06/21 06:25:45;;;;;;;6.28;2.88;;;;;;;;;;5081851;28;20556;-71
2022/06/21 06:28:26;;;;;;;6.43;3.28;;;;;;;;;;5077313;28;20020;-73
2022/06/21 06:31:08;;;;;;;6.85;3.17;;;;;;;;;;5076114;28;20036;-74
2022/06/21 06:34:05;;;;;;;7.13;3.33;;;;;;;;;;5081607;28;20036;-74
2022/06/21 06:36:39;;;;;;;7.43;3.80;;;;;;;;;;5073724;28;20032;-74
2022/06/21 06:39:27;;;;;;;4.70;3.05;;;;;;;;;;5059614;28;20036;-74
2022/06/21 06:42:05;;;;;;;6.35;3.33;;;;;;;;;;5081396;28;20857;-75
2022/06/21 06:45:15;;;;;;;5.38;3.13;;;;;;;;;;5080927;28;20039;-74
2022/06/21 06:48:01;;;;;;;8.18;4.72;;;;;;;;;;5054811;28;20526;-75
2022/06/21 06:50:42;;;;;;;3.85;2.95;;;;;;;;;;5081792;28;20066;-73
2022/06/21 06:53:13;;;;;;;4.07;3.30;;;;;;;;;;5083075;28;20024;-74
2022/06/21 06:55:46;;;;;;;3.42;3.13;;;;;;;;;;5082572;28;20492;-72
2022/06/21 06:58:29;;;;;;;3.35;2.88;;;;;;;;;;5063685;28;20047;-75
2022/06/21 07:01:04;;;;;;;7.00;3.25;;;;;;;;;;5074448;28;20145;-75
2022/06/21 07:03:34;;;;;;;3.65;2.90;;;;;;;;;;5066656;28;20875;-73
2022/06/21 07:06:20;;;;;;;3.58;2.35;;;;;;;;;;5101977;28;20039;-73
2022/06/21 07:08:49;;;;;;;5.80;3.03;;;;;;;;;;5078952;28;20036;-74
2022/06/21 07:11:21;;;;;;;6.35;3.00;;;;;;;;;;5080706;28;20112;-74
2022/06/21 07:13:47;;;;;;;3.78;2.55;;;;;;;;;;5080399;28;20032;-74
2022/06/21 07:16:19;;;;;;;4.70;2.63;;;;;;;;;;5078296;28;20498;-74
2022/06/21 07:18:51;;;;;;;5.15;3.20;;;;;;;;;;5075992;28;20047;-74
2022/06/21 07:21:20;;;;;;;4.35;2.83;;;;;;;;;;5079440;28;20051;-75
2022/06/21 07:23:46;;;;;;;6.85;2.83;;;;;;;;;;5058457;28;20035;-75
2022/06/21 07:26:32;;;;;;;3.58;2.70;;;;;;;;;;5081812;28;20416;-73
2022/06/21 07:29:04;;;;;;;2.72;2.33;;;;;;;;;;5076594;28;20524;-73
2022/06/21 07:31:35;;;;;;;6.70;2.80;;;;;;;;;;5079577;28;20050;-72
2022/06/21 07:34:10;;;;;;;3.17;2.85;;;;;;;;;;5076495;28;20302;-72
2022/06/21 07:36:44;;;;;;;2.80;2.45;;;;;;;;;;5081566;28;20028;-74
2022/06/21 07:39:22;;;;;;;3.97;3.00;;;;;;;;;;5060526;28;20436;-74
2022/06/21 07:42:06;;;;;;;3.70;3.20;;;;;;;;;;5079054;28;20057;-75
2022/06/21 07:44:44;;;;;;;3.40;2.55;;;;;;;;;;5077925;28;20036;-78
2022/06/21 07:47:29;;;;;;;3.00;2.78;;;;;;;;;;5078232;28;20035;-75
2022/06/21 07:50:14;;;;;;;3.42;2.97;;;;;;;;;;5079283;28;20024;-76
2022/06/21 07:52:50;;;;;;;9.48;3.42;;;;;;;;;;5063570;28;20119;-77
2022/06/21 07:55:38;;;;;;;5.30;2.88;;;;;;;;;;5059927;28;20452;-75
2022/06/21 07:58:10;;;;;;;3.45;2.50;;;;;;;;;;5079325;28;20028;-76
2022/06/21 08:09:15;;;;;;;4.75;2.80;;;;;;;;;;5077069;28;20161;-77
2022/06/21 08:11:44;;;;;;;10.60;3.25;;;;;;;;;;5085405;28;20455;-78
2022/06/21 08:14:12;;;;;;;4.97;2.95;;;;;;;;;;5091991;28;20802;-74
2022/06/21 08:17:08;;;;;;;10.43;3.13;;;;;;;;;;5083077;28;20036;-74
2022/06/21 08:19:36;;;;;;;5.03;2.90;;;;;;;;;;5081638;28;20082;-76
2022/06/21 08:22:34;;;;;;;5.40;4.75;;;;;;;;;;5081012;28;20078;-75
2022/06/21 08:25:15;;;;;;;7.03;3.30;;;;;;;;;;5083836;28;20044;-78
2022/06/21 08:27:54;;;;;;;;;;;;;;;;;;5084515;28;20464;-74
2022/06/21 08:30:30;;;;;;;5.53;2.40;;;;;;;;;;5079679;28;19920;-75
2022/06/21 08:33:18;;;;;;;6.28;3.28;;;;;;;;;;5082994;28;20043;-76
2022/06/21 08:35:50;;;;;;;4.47;2.67;;;;;;;;;;5086789;28;20032;-74
2022/06/21 08:38:51;;;;;;;3.50;3.20;;;;;;;;;;5078816;28;20776;-77
2022/06/21 08:42:02;;;;;;;4.90;3.30;;;;;;;;;;5076587;28;20399;-77
2022/06/21 08:44:46;;;;;;;2.60;2.40;;;;;;;;;;5080673;28;20122;-77
2022/06/21 08:47:43;;;;;;;4.40;2.78;;;;;;;;;;5073040;28;20134;-75
2022/06/21 08:50:12;;;;;;;4.80;2.60;;;;;;;;;;5078415;28;20554;-76
2022/06/21 08:52:48;;;;;;;3.83;2.60;;;;;;;;;;5076566;28;20111;-78
2022/06/21 08:55:36;;;;;;;4.68;2.28;;;;;;;;;;5076740;28;20058;-75
2022/06/21 08:58:31;;;;;;;3.55;2.33;;;;;;;;;;5080325;28;20031;-73
2022/06/21 09:01:11;;;;;;;5.65;2.65;;;;;;;;;;5087620;28;20405;-78
2022/06/21 09:04:15;;;;;;;3.35;2.13;;;;;;;;;;5083661;28;20041;-76
2022/06/21 09:06:51;;;;;;;2.55;2.35;;;;;;;;;;5085801;28;20048;-76
2022/06/21 09:09:42;;;;;;;4.00;2.58;;;;;;;;;;5084424;28;20089;-72
2022/06/21 09:12:29;;;;;;;4.90;2.47;;;;;;;;;;5089166;28;20958;-75
2022/06/21 09:15:26;;;;;;;4.00;2.40;;;;;;;;;;5074918;28;20034;-78
2022/06/21 09:18:30;;;;;;;6.25;2.22;;;;;;;;;;5060726;28;20235;-77
2022/06/21 09:21:31;;;;;;;3.47;2.15;;;;;;;;;;5075231;28;20992;-77
2022/06/21 09:23:57;;;;;;;9.23;2.97;;;;;;;;;;5075304;28;20035;-75
2022/06/21 09:27:14;;;;;;;5.15;2.50;;;;;;;;;;5074402;28;20131;-74
2022/06/21 09:30:11;;;;;;;4.90;2.05;;;;;;;;;;5037188;28;20082;-78
2022/06/21 09:33:12;;;;;;;4.30;2.40;;;;;;;;;;5075950;28;20067;-74
2022/06/21 09:36:14;;;;;;;6.63;2.67;;;;;;;;;;5072583;28;20032;-74
2022/06/21 09:39:13;;;;;;;2.75;1.90;;;;;;;;;;5074117;28;20039;-77
2022/06/21 09:42:00;;;;;;;7.78;2.60;;;;;;;;;;5077678;28;20073;-77
2022/06/21 09:44:51;;;;;;;5.07;2.17;;;;;;;;;;5076665;28;20040;-73
2022/06/21 09:47:41;;;;;;;3.55;2.53;;;;;;;;;;5070819;28;20035;-78
2022/06/21 09:50:28;;;;;;;5.57;2.28;;;;;;;;;;5074981;28;20510;-77
2022/06/21 09:53:32;;;;;;;4.43;2.65;;;;;;;;;;5075010;28;20028;-77
2022/06/21 09:56:24;;;;;;;4.45;2.05;;;;;;;;;;5060150;28;20035;-76
2022/06/21 09:59:10;;;;;;;3.15;2.42;;;;;;;;;;5078230;28;20040;-78
2022/06/21 10:01:44;;;;;;;3.15;2.22;;;;;;;;;;5075918;28;20115;-76
2022/06/21 10:04:37;;;;;;;2.55;2.17;;;;;;;;;;5076045;28;20040;-75
2022/06/21 10:07:44;;;;;;;3.97;2.40;;;;;;;;;;5076083;28;20032;-77
2022/06/21 10:10:40;;;;;;;5.72;2.53;;;;;;;;;;5077561;28;20048;-75
2022/06/21 10:13:50;;;;;;;7.43;2.40;;;;;;;;;;5078464;28;20412;-78
2022/06/21 10:16:19;;;;;;;3.90;2.63;;;;;;;;;;5079199;28;20094;-77
2022/06/21 10:19:00;;;;;;;6.93;2.35;;;;;;;;;;5078623;28;20046;-77
2022/06/21 10:21:48;;;;;;;5.30;2.42;;;;;;;;;;5082630;28;20028;-75
2022/06/21 10:24:53;;;;;;;2.90;2.33;;;;;;;;;;5082451;28;20123;-75
2022/06/21 10:27:28;;;;;;;6.00;2.47;;;;;;;;;;5098930;28;20031;-76
2022/06/21 10:30:32;;;;;;;3.53;2.20;;;;;;;;;;5084958;28;20094;-76
2022/06/21 10:33:14;;;;;;;3.35;2.17;;;;;;;;;;5086931;28;20028;-74
2022/06/21 10:35:40;;;;;;;10.85;2.50;;;;;;;;;;5082841;28;20035;-75
2022/06/21 10:38:27;;;;;;;4.03;2.53;;;;;;;;;;5081216;28;20063;-76
2022/06/21 10:41:01;;;;;;;7.68;2.67;;;;;;;;;;5075307;28;20348;-74
2022/06/21 10:43:42;;;;;;;4.47;3.05;;;;;;;;;;5081547;28;20107;-75
2022/06/21 10:46:28;;;;;;;3.65;2.22;;;;;;;;;;5074841;28;20918;-76
2022/06/21 10:49:19;;;;;;;3.72;1.90;;;;;;;;;;5074145;28;20040;-73
2022/06/21 10:52:24;;;;;;;4.47;2.03;;;;;;;;;;5081380;28;20720;-75
2022/06/21 10:55:09;;;;;;;3.40;2.03;;;;;;;;;;5080959;28;20122;-75
2022/06/21 10:57:55;;;;;;;4.95;2.10;;;;;;;;;;5075549;28;20075;-76
2022/06/21 11:03:53;;;;;;;2.50;2.10;;;;;;;;;;5081717;28;20035;-74
2022/06/21 11:06:48;;;;;;;2.65;2.38;;;;;;;;;;5078754;28;20471;-76
2022/06/21 11:09:20;;;;;;;2.92;2.33;;;;;;;;;;5078147;28;20448;-73
2022/06/21 11:11:55;;;;;;;1.95;1.80;;;;;;;;;;5079726;28;20111;-76
2022/06/21 11:14:23;;;;;;;5.38;2.53;;;;;;;;;;5080596;28;20115;-75
2022/06/21 11:17:32;;;;;;;6.30;2.30;;;;;;;;;;5079927;28;20423;-76
2022/06/21 11:20:18;;;;;;;4.13;1.95;;;;;;;;;;5075072;28;20050;-75
2022/06/21 11:22:52;;;;;;;3.22;1.60;;;;;;;;;;5078023;28;20360;-76
2022/06/21 11:25:30;;;;;;;2.25;2.05;;;;;;;;;;5075581;28;20030;-74
2022/06/21 11:28:09;;;;;;;2.58;1.73;;;;;;;;;;5079089;28;20464;-75
2022/06/21 11:30:47;;;;;;;4.78;2.08;;;;;;;;;;5079270;28;20097;-75
2022/06/21 11:33:18;;;;;;;4.85;1.98;;;;;;;;;;5083232;28;20032;-75
2022/06/21 11:36:13;;;;;;;4.05;2.90;;;;;;;;;;5080544;28;20036;-75
2022/06/21 11:39:00;;;;;;;2.33;2.13;;;;;;;;;;5081385;28;21148;-75
2022/06/21 11:44:46;;;;;;;6.63;2.55;;;;;;;;;;5088554;28;20420;-74
2022/06/21 11:47:57;;;;;;;6.60;2.50;;;;;;;;;;5086030;28;20028;-77
2022/06/21 11:50:47;;;;;;;3.05;1.85;;;;;;;;;;5080788;28;20612;-76
2022/06/21 11:53:31;;;;;;;3.33;1.67;;;;;;;;;;5081234;28;20044;-75
2022/06/21 11:56:09;;;;;;;4.93;2.00;;;;;;;;;;5082336;28;20750;-74
2022/06/21 11:58:56;;;;;;;3.78;2.20;;;;;;;;;;5084561;28;20035;-74
2022/06/21 12:01:44;;;;;;;5.50;2.15;;;;;;;;;;5078160;28;20054;-73
2022/06/21 12:04:19;;;;;;;5.30;1.90;;;;;;;;;;5078399;28;20023;-73
2022/06/21 12:06:54;;;;;;;4.82;1.80;;;;;;;;;;5078613;28;20030;-74
2022/06/21 12:09:35;;;;;;;4.25;2.13;;;;;;;;;;5080378;28;20024;-73
2022/06/21 12:12:30;;;;;;;6.18;1.80;;;;;;;;;;5077557;28;20028;-72
2022/06/21 12:15:14;;;;;;;2.85;1.83;;;;;;;;;;5076035;28;20044;-72
2022/06/21 12:18:00;;;;;;;3.10;1.80;;;;;;;;;;5081176;28;20040;-76
2022/06/21 12:20:38;;;;;;;4.28;1.42;;;;;;;;;;5077671;28;20119;-72
2022/06/21 12:23:18;;;;;;;2.97;1.65;;;;;;;;;;5078474;28;20028;-74
2022/06/21 12:25:45;;;;;;;1.55;1.45;;;;;;;;;;5083867;28;20182;-74
2022/06/21 12:28:26;;;;;;;3.28;1.42;;;;;;;;;;5079897;28;20028;-75
2022/06/21 12:30:57;;;;;;;3.97;2.10;;;;;;;;;;5068736;28;20162;-75
2022/06/21 12:33:33;;;;;;;4.30;1.45;;;;;;;;;;5087525;28;20024;-74
2022/06/21 12:36:03;;;;;;;2.03;1.48;;;;;;;;;;5084484;28;20028;-76
2022/06/21 12:38:39;;;;;;;6.20;2.03;;;;;;;;;;5078947;28;20115;-77
2022/06/21 12:41:23;;;;;;;4.70;2.05;;;;;;;;;;5079012;28;20032;-76
2022/06/21 12:43:54;;;;;;;3.55;1.52;;;;;;;;;;5078997;28;20098;-75
2022/06/21 12:46:30;;;;;;;4.43;1.42;;;;;;;;;;5078798;28;20461;-74
2022/06/21 12:49:29;;;;;;;4.40;1.65;;;;;;;;;;5074480;28;20024;-75
2022/06/21 12:52:01;;;;;;;4.43;1.48;;;;;;;;;;5078697;28;20367;-77
2022/06/21 12:54:56;;;;;;;2.88;1.10;;;;;;;;;;5080919;28;20020;-79
2022/06/21 12:57:58;;;;;;;4.60;1.75;;;;;;;;;;5080602;28;20335;-77
2022/06/21 13:00:42;;;;;;;3.70;1.98;;;;;;;;;;5077302;28;20346;-75
2022/06/21 13:03:37;;;;;;;4.00;2.25;;;;;;;;;;5078842;28;20038;-76
2022/06/21 13:06:08;;;;;;;5.85;1.38;;;;;;;;;;5076621;28;20020;-76
2022/06/21 13:09:05;;;;;;;3.80;1.13;;;;;;;;;;5077965;28;20123;-77
2022/06/21 13:12:05;;;;;;;5.43;1.80;;;;;;;;;;5077451;28;20024;-76
2022/06/21 13:14:46;;;;;;;3.05;1.10;;;;;;;;;;5080295;28;20062;-75
2022/06/21 13:17:25;;;;;;;2.47;1.15;;;;;;;;;;5015122;28;20057;-75
2022/06/21 13:20:12;;;;;;;2.35;1.25;;;;;;;;;;5028825;28;20140;-76
2022/06/21 13:22:55;;;;;;;1.48;0.82;;;;;;;;;;5034049;28;20075;-76
2022/06/21 13:25:58;;;;;;;1.05;0.70;;;;;;;;;;5029011;28;20540;-75
2022/06/21 13:28:59;;;;;;;1.63;0.90;;;;;;;;;;5060147;28;20020;-75
2022/06/21 13:31:36;;;;;;;3.25;0.98;;;;;;;;;;4998458;28;20508;-74
2022/06/21 13:34:19;;;;;;;7.40;1.05;;;;;;;;;;5034090;28;20556;-76
2022/06/21 13:36:52;;;;;;;1.73;1.23;;;;;;;;;;5027831;28;20174;-78
2022/06/21 13:39:59;;;;;;;3.75;1.63;;;;;;;;;;5031903;28;20354;-74
2022/06/21 13:42:46;;;;;;;3.17;1.90;;;;;;;;;;5030635;28;20213;-75
2022/06/21 13:45:23;;;;;;;5.45;2.35;;;;;;;;;;5032140;28;20033;-74
2022/06/21 13:47:55;;;;;;;2.45;1.10;;;;;;;;;;5059249;28;20054;-75
2022/06/21 13:50:27;;;;;;;3.60;1.23;;;;;;;;;;5027850;28;20063;-77
2022/06/21 13:53:05;;;;;;;5.00;2.80;;;;;;;;;;5032262;28;20036;-76
2022/06/21 13:56:00;;;;;;;1.58;0.90;;;;;;;;;;5032655;28;20028;-75
2022/06/21 13:58:37;;;;;;;2.10;1.00;;;;;;;;;;5032983;28;20036;-76
2022/06/21 14:01:12;;;;;;;4.28;1.30;;;;;;;;;;5034154;28;20128;-76
2022/06/21 14:03:53;;;;;;;1.42;1.20;;;;;;;;;;5034255;28;20037;-76
2022/06/21 14:06:54;;;;;;;3.63;1.25;;;;;;;;;;5028646;28;20039;-75
2022/06/21 14:09:19;;;;;;;11.20;1.73;;;;;;;;;;5034620;28;20120;-76
2022/06/21 14:12:06;;;;;;;1.73;0.85;;;;;;;;;;5033652;28;20032;-75
2022/06/21 14:14:55;;;;;;;3.13;1.17;;;;;;;;;;5033755;28;20028;-75
2022/06/21 14:17:36;;;;;;;3.03;1.33;;;;;;;;;;4979702;28;20044;-75
2022/06/21 14:20:21;;;;;;;1.10;0.75;;;;;;;;;;5030205;28;20386;-77
2022/06/21 14:23:09;;;;;;;3.70;1.42;;;;;;;;;;5037939;28;20429;-75
2022/06/21 14:25:44;;;;;;;1.05;0.75;;;;;;;;;;4998842;28;20456;-75
2022/06/21 14:28:31;;;;;;;6.05;1.27;;;;;;;;;;5028115;28;20026;-76
2022/06/21 14:31:06;;;;;;;0.80;0.80;;;;;;;;;;5028481;28;20033;-76
2022/06/21 14:33:44;;;;;;;2.65;1.08;;;;;;;;;;5031948;28;20087;-76
2022/06/21 14:36:16;;;;;;;6.75;1.23;;;;;;;;;;5030460;28;20032;-76
2022/06/21 14:39:16;;;;;;;3.40;1.00;;;;;;;;;;5034172;28;20033;-76
2022/06/21 14:41:54;;;;;;;2.95;0.95;;;;;;;;;;5018630;28;20048;-74
2022/06/21 14:44:20;;;;;;;3.42;1.08;;;;;;;;;;5033279;28;20060;-74
2022/06/21 14:47:00;;;;;;;2.63;0.73;;;;;;;;;;5028645;28;20120;-72
2022/06/21 14:50:01;;;;;;;2.63;1.00;;;;;;;;;;5027294;28;20029;-75
2022/06/21 14:52:45;;;;;;;3.08;1.10;;;;;;;;;;5017954;28;20560;-73
2022/06/21 14:55:10;;;;;;;1.25;0.70;;;;;;;;;;5043019;28;20367;-75
2022/06/21 14:58:01;;;;;;;8.40;1.85;;;;;;;;;;5037503;28;20049;-75
2022/06/21 15:00:36;;;;;;;2.35;1.10;;;;;;;;;;5043734;28;20110;-75
2022/06/21 15:03:30;;;;;;;2.10;0.80;;;;;;;;;;5032622;28;20021;-74
2022/06/21 15:06:10;;;;;;;3.05;1.20;;;;;;;;;;5038066;28;20104;-75
2022/06/21 15:09:02;;;;;;;2.30;1.00;;;;;;;;;;5037360;28;20032;-75
2022/06/21 15:12:04;;;;;;;2.13;1.00;;;;;;;;;;5039831;28;20500;-74
2022/06/21 15:14:45;;;;;;;2.03;1.20;;;;;;;;;;5039422;28;20040;-74
2022/06/21 15:17:19;;;;;;;3.17;0.80;;;;;;;;;;5017340;28;20041;-75
2022/06/21 15:20:00;;;;;;;5.38;0.82;;;;;;;;;;5042617;28;20060;-74
2022/06/21 15:23:00;;;;;;;3.25;0.90;;;;;;;;;;5046465;28;20078;-73
2022/06/21 15:25:57;;;;;;;3.05;1.05;;;;;;;;;;5035978;28;20107;-74
2022/06/21 15:28:34;;;;;;;3.53;1.33;;;;;;;;;;5048894;28;20017;-74
2022/06/21 15:31:06;;;;;;;3.97;1.63;;;;;;;;;;5051061;28;20035;-73
2022/06/21 15:33:49;;;;;;;2.25;0.90;;;;;;;;;;5055892;28;20028;-77
2022/06/21 15:36:46;;;;;;;3.13;1.20;;;;;;;;;;5057406;28;20621;-74
2022/06/21 15:39:27;;;;;;;1.63;0.98;;;;;;;;;;5046978;28;20028;-76
2022/06/21 15:42:20;;;;;;;1.80;1.70;;;;;;;;;;5047972;28;20033;-76
2022/06/21 15:45:12;;;;;;;6.40;2.33;;;;;;;;;;5046643;28;20056;-76
2022/06/21 15:50:54;;;;;;;2.80;1.52;;;;;;;;;;5048339;28;20040;-75
2022/06/21 15:54:10;;;;;;;3.30;1.25;;;;;;;;;;5047637;28;20024;-76
2022/06/21 15:56:41;;;;;;;6.57;3.85;;;;;;;;;;4970785;28;20137;-76
2022/06/21 15:59:25;;;;;;;3.55;1.38;;;;;;;;;;5060143;28;20041;-77
2022/06/21 16:02:25;;;;;;;2.88;1.20;;;;;;;;;;5060177;28;20439;-77
2022/06/21 16:05:27;;;;;;;1.98;1.02;;;;;;;;;;4996667;28;20064;-75
2022/06/21 16:07:56;;;;;;;;;;;;;;;;;;5048517;28;20024;-76
2022/06/21 16:10:39;;;;;;;5.97;1.40;;;;;;;;;;5048833;28;19913;-76
2022/06/21 16:13:28;;;;;;;1.20;1.10;;;;;;;;;;5055856;28;20071;-76
2022/06/21 16:16:01;;;;;;;5.03;2.45;;;;;;;;;;5039304;28;20055;-75
2022/06/21 16:18:39;;;;;;;3.65;1.52;;;;;;;;;;5057407;28;20413;-76
2022/06/21 16:21:33;;;;;;;3.67;1.63;;;;;;;;;;5055840;28;20036;-77
2022/06/21 16:24:17;;;;;;;9.73;2.13;;;;;;;;;;5031442;28;20588;-75